createdAt,value
2022-10-09T00:01:11.945Z,102343.63
2022-10-09T00:03:41.044Z,102348.72
2022-10-09T00:06:10.134Z,102363.97
2022-10-09T00:08:41.416Z,102360.75
2022-10-09T00:11:11.043Z,102355.22
2022-10-09T00:13:37.902Z,102371.72
2022-10-09T00:16:07.030Z,102369.38
2022-10-09T00:18:34.239Z,102374.22
2022-10-09T00:21:01.055Z,102350.69
2022-10-09T00:23:28.102Z,102365.09
2022-10-09T00:26:00.467Z,102370.59
2022-10-09T00:28:30.146Z,102359.41
2022-10-09T00:30:57.214Z,102377.75
2022-10-09T00:33:24.311Z,102372.19
2022-10-09T00:35:51.222Z,102374.66
2022-10-09T00:38:17.870Z,102366.16
2022-10-09T00:40:44.822Z,102378.34
2022-10-09T00:43:37.768Z,102368.66
2022-10-09T00:46:04.922Z,102379.28
2022-10-09T00:48:31.859Z,102378.81
2022-10-09T00:51:01.569Z,102366.16
2022-10-09T00:53:30.328Z,102371.66
2022-10-09T00:55:57.801Z,102360.28
2022-10-09T00:58:25.865Z,102363.13
2022-10-09T01:00:53.232Z,102367.69
2022-10-09T01:03:19.950Z,102357.50
2022-10-09T01:06:08.657Z,102370.00
2022-10-09T01:08:52.662Z,102345.28
2022-10-09T01:11:37.967Z,102368.63
2022-10-09T01:14:14.378Z,102366.47
2022-10-09T01:17:00.975Z,102370.97
2022-10-09T01:19:44.737Z,102360.38
2022-10-09T01:22:26.619Z,102367.25
2022-10-09T01:25:08.012Z,102370.53
2022-10-09T01:27:36.993Z,102363.47
2022-10-09T01:30:08.665Z,102364.28
2022-10-09T01:32:43.978Z,102346.91
2022-10-09T01:35:12.657Z,102345.25
2022-10-09T01:37:42.282Z,102340.50
2022-10-09T01:40:12.365Z,102335.63
2022-10-09T01:42:39.259Z,102338.59
2022-10-09T01:45:06.629Z,102341.88
2022-10-09T01:47:33.228Z,102331.00
2022-10-09T01:50:13.365Z,102336.63
2022-10-09T01:52:51.717Z,102326.25
2022-10-09T01:55:38.532Z,102325.25
2022-10-09T01:58:31.416Z,102319.09
2022-10-09T02:01:04.281Z,102326.41
2022-10-09T02:03:33.471Z,102315.84
2022-10-09T02:06:02.315Z,102313.91
2022-10-09T02:08:32.053Z,102312.25
2022-10-09T02:11:01.790Z,102303.16
2022-10-09T02:13:30.324Z,102302.66
2022-10-09T02:16:04.462Z,102318.09
2022-10-09T02:18:40.272Z,102307.22
2022-10-09T02:21:14.401Z,102315.25
2022-10-09T02:23:44.387Z,102309.59
2022-10-09T02:26:12.712Z,102280.56
2022-10-09T02:28:43.853Z,102300.63
2022-10-09T02:31:20.160Z,102293.13
2022-10-09T02:33:54.807Z,102287.94
2022-10-09T02:36:21.348Z,102298.72
2022-10-09T02:38:47.891Z,102300.94
2022-10-09T02:41:14.469Z,102290.78
2022-10-09T02:43:41.142Z,102298.06
2022-10-09T02:46:07.848Z,102287.00
2022-10-09T02:48:34.786Z,102297.41
2022-10-09T02:51:01.484Z,102299.38
2022-10-09T02:53:28.143Z,102290.19
2022-10-09T02:55:54.845Z,102283.59
2022-10-09T02:58:21.547Z,102277.84
2022-10-09T03:00:50.106Z,102289.25
2022-10-09T03:03:16.867Z,102291.22
2022-10-09T03:05:43.869Z,102286.97
2022-10-09T03:08:10.413Z,102286.75
2022-10-09T03:10:38.006Z,102274.63
2022-10-09T03:13:05.522Z,102278.88
2022-10-09T03:15:36.759Z,102262.19
2022-10-09T03:18:03.682Z,102266.06
2022-10-09T03:20:30.663Z,102279.53
2022-10-09T03:22:57.388Z,102275.78
2022-10-09T03:25:25.534Z,102277.34
2022-10-09T03:27:52.212Z,102281.19
2022-10-09T03:30:18.910Z,102290.41
2022-10-09T03:32:45.665Z,102289.25
2022-10-09T03:35:12.468Z,102294.16
2022-10-09T03:37:39.209Z,102282.94
2022-10-09T03:40:06.873Z,102296.47
2022-10-09T03:42:33.589Z,102280.13
2022-10-09T03:45:04.019Z,102290.78
2022-10-09T03:47:31.472Z,102278.91
2022-10-09T03:49:58.068Z,102282.94
2022-10-09T03:52:24.981Z,102279.75
2022-10-09T03:54:51.921Z,102293.50
2022-10-09T03:57:18.629Z,102280.66
2022-10-09T03:59:45.203Z,102276.53
2022-10-09T04:02:13.266Z,102271.47
2022-10-09T04:04:39.903Z,102281.72
2022-10-09T04:07:06.537Z,102283.81
2022-10-09T04:09:33.099Z,102273.78
2022-10-09T04:11:59.938Z,102274.81
2022-10-09T04:14:26.491Z,102277.06
2022-10-09T04:16:53.312Z,102285.81
2022-10-09T04:19:19.887Z,102281.66
2022-10-09T04:21:46.788Z,102277.06
2022-10-09T04:24:13.423Z,102267.75
2022-10-09T04:26:40.264Z,102272.53
2022-10-09T04:29:06.911Z,102268.19
2022-10-09T04:31:33.712Z,102275.44
2022-10-09T04:34:00.575Z,102267.88
2022-10-09T04:36:27.413Z,102273.66
2022-10-09T04:38:54.370Z,102281.66
2022-10-09T04:41:21.101Z,102270.06
2022-10-09T04:43:47.804Z,102259.50
2022-10-09T04:46:15.391Z,102247.50
2022-10-09T04:48:45.016Z,102257.72
2022-10-09T04:51:12.895Z,102264.47
2022-10-09T04:53:40.384Z,102254.91
2022-10-09T04:56:10.230Z,102270.28
2022-10-09T04:58:37.215Z,102264.88
2022-10-09T05:01:22.670Z,102250.88
2022-10-09T05:03:50.291Z,102257.00
2022-10-09T05:06:18.393Z,102258.75
2022-10-09T05:08:45.402Z,102235.59
2022-10-09T05:11:18.558Z,102254.28
2022-10-09T05:13:47.765Z,102242.72
2022-10-09T05:16:17.557Z,102244.91
2022-10-09T05:18:46.028Z,102233.91
2022-10-09T05:21:13.199Z,102221.59
2022-10-09T05:23:40.040Z,102229.47
2022-10-09T05:26:09.141Z,102240.03
2022-10-09T05:28:36.003Z,102244.50
2022-10-09T05:31:04.484Z,102232.69
2022-10-09T05:33:31.335Z,102238.16
2022-10-09T05:36:00.095Z,102238.38
2022-10-09T05:38:27.827Z,102231.38
2022-10-09T05:40:56.762Z,102221.09
2022-10-09T05:43:24.960Z,102237.88
2022-10-09T05:45:51.663Z,102218.09
2022-10-09T05:48:18.853Z,102233.09
2022-10-09T05:50:46.223Z,102234.47
2022-10-09T05:53:12.886Z,102232.91
2022-10-09T05:55:39.917Z,102246.03
2022-10-09T05:58:06.644Z,102232.47
2022-10-09T06:00:33.474Z,102240.66
2022-10-09T06:03:00.122Z,102238.59
2022-10-09T06:05:26.708Z,102244.09
2022-10-09T06:07:53.436Z,102234.84
2022-10-09T06:10:20.018Z,102231.13
2022-10-09T06:12:47.117Z,102241.69
2022-10-09T06:15:14.321Z,102239.31
2022-10-09T06:17:41.000Z,102243.56
2022-10-09T06:20:07.948Z,102231.66
2022-10-09T06:22:35.858Z,102235.38
2022-10-09T06:25:02.433Z,102248.69
2022-10-09T06:27:29.176Z,102235.84
2022-10-09T06:29:56.103Z,102243.97
2022-10-09T06:32:22.675Z,102240.53
2022-10-09T06:34:49.206Z,102244.84
2022-10-09T06:37:15.788Z,102242.03
2022-10-09T06:39:42.362Z,102243.41
2022-10-09T06:42:08.892Z,102257.47
2022-10-09T06:44:49.630Z,102254.38
2022-10-09T06:47:16.249Z,102253.50
2022-10-09T06:49:42.840Z,102249.25
2022-10-09T06:52:09.472Z,102252.34
2022-10-09T06:54:36.109Z,102239.38
2022-10-09T06:57:02.789Z,102256.75
2022-10-09T06:59:29.329Z,102240.59
2022-10-09T07:01:57.078Z,102249.25
2022-10-09T07:04:23.757Z,102252.22
2022-10-09T07:06:50.326Z,102236.19
2022-10-09T07:09:16.994Z,102247.28
2022-10-09T07:11:46.507Z,102250.72
2022-10-09T07:14:14.118Z,102234.06
2022-10-09T07:16:43.226Z,102254.38
2022-10-09T07:19:11.746Z,102247.16
2022-10-09T07:21:41.012Z,102254.34
2022-10-09T07:24:08.915Z,102249.63
2022-10-09T07:26:38.335Z,102238.63
2022-10-09T07:29:06.916Z,102239.88
2022-10-09T07:31:33.603Z,102233.94
2022-10-09T07:34:00.173Z,102230.50
2022-10-09T07:36:26.829Z,102247.13
2022-10-09T07:38:56.429Z,102232.91
2022-10-09T07:41:25.732Z,102239.78
2022-10-09T07:43:53.024Z,102233.81
2022-10-09T07:46:21.800Z,102244.28
2022-10-09T07:48:49.113Z,102239.97
2022-10-09T07:51:18.935Z,102237.44
2022-10-09T07:53:45.898Z,102225.13
2022-10-09T07:56:18.233Z,102245.34
2022-10-09T07:58:49.922Z,102243.38
2022-10-09T08:01:20.079Z,102233.50
2022-10-09T08:03:48.068Z,102221.88
2022-10-09T08:06:15.284Z,102229.22
2022-10-09T08:08:42.486Z,102220.59
2022-10-09T08:11:14.999Z,102211.56
2022-10-09T08:13:42.450Z,102222.31
2022-10-09T08:16:10.131Z,102217.09
2022-10-09T08:18:37.185Z,102221.13
2022-10-09T08:21:06.897Z,102214.38
2022-10-09T08:23:33.909Z,102220.44
2022-10-09T08:26:00.761Z,102217.72
2022-10-09T08:28:27.933Z,102227.06
2022-10-09T08:30:54.786Z,102223.75
2022-10-09T08:33:23.273Z,102223.59
2022-10-09T08:35:50.208Z,102224.13
2022-10-09T08:38:31.284Z,102211.63
2022-10-09T08:41:08.426Z,102207.31
2022-10-09T08:43:39.955Z,102214.00
2022-10-09T08:46:20.717Z,102207.09
2022-10-09T08:48:50.285Z,102200.78
2022-10-09T08:51:27.789Z,102200.84
2022-10-09T08:54:26.628Z,102193.28
2022-10-09T08:56:54.121Z,102203.03
2022-10-09T08:59:20.775Z,102202.75
2022-10-09T09:02:07.896Z,102193.16
2022-10-09T09:05:00.207Z,102185.25
2022-10-09T09:07:49.290Z,102192.72
2022-10-09T09:10:36.114Z,102188.56
2022-10-09T09:13:23.441Z,102191.94
2022-10-09T09:15:55.414Z,102185.28
2022-10-09T09:18:31.147Z,102165.88
2022-10-09T09:21:16.185Z,102158.56
2022-10-09T09:23:47.165Z,102159.38
2022-10-09T09:26:19.905Z,102161.56
2022-10-09T09:28:51.179Z,102161.28
2022-10-09T09:31:35.585Z,102148.41
2022-10-09T09:34:14.388Z,102140.38
2022-10-09T09:36:54.871Z,102151.25
2022-10-09T09:40:23.792Z,102145.03
2022-10-09T09:42:20.695Z,102128.63
2022-10-09T09:44:56.203Z,102129.28
2022-10-09T09:47:57.984Z,102134.03
2022-10-09T09:50:48.729Z,102133.69
2022-10-09T09:53:32.319Z,102128.09
2022-10-09T09:55:59.993Z,102120.84
2022-10-09T09:58:36.806Z,102100.63
2022-10-09T10:01:06.635Z,102112.94
2022-10-09T10:03:35.850Z,102111.78
2022-10-09T10:06:03.390Z,102092.72
2022-10-09T10:08:33.108Z,102100.53
2022-10-09T10:11:06.950Z,102106.56
2022-10-09T10:13:38.033Z,102095.88
2022-10-09T10:16:08.265Z,102101.00
2022-10-09T10:18:40.778Z,102093.00
2022-10-09T10:21:12.609Z,102096.09
2022-10-09T10:23:44.191Z,102094.00
2022-10-09T10:26:31.382Z,102081.19
2022-10-09T10:29:08.862Z,102084.69
2022-10-09T10:31:43.272Z,102080.53
2022-10-09T10:34:19.548Z,102073.03
2022-10-09T10:36:48.151Z,102073.31
2022-10-09T10:39:27.475Z,102071.00
2022-10-09T10:42:00.228Z,102068.38
2022-10-09T10:44:47.643Z,102062.81
2022-10-09T10:47:23.879Z,102053.63
2022-10-09T10:49:51.038Z,102057.44
2022-10-09T10:52:34.518Z,102059.66
2022-10-09T10:55:20.077Z,102051.81
2022-10-09T10:57:52.751Z,102041.38
2022-10-09T11:00:19.406Z,102035.38
2022-10-09T11:03:14.962Z,102034.19
2022-10-09T11:06:03.415Z,102022.56
2022-10-09T11:08:44.820Z,102026.28
2022-10-09T11:11:38.120Z,102022.91
2022-10-09T11:14:04.692Z,102020.94
2022-10-09T11:16:57.262Z,102005.66
2022-10-09T11:19:53.456Z,102009.50
2022-10-09T11:22:44.853Z,102005.94
2022-10-09T11:25:37.108Z,102001.31
2022-10-09T11:28:30.571Z,102001.00
2022-10-09T11:31:12.608Z,101995.97
2022-10-09T11:33:45.567Z,101988.38
2022-10-09T11:36:33.188Z,101987.00
2022-10-09T11:39:03.662Z,101990.59
2022-10-09T11:41:31.013Z,101987.63
2022-10-09T11:44:30.152Z,101989.00
2022-10-09T11:47:09.558Z,101970.03
2022-10-09T11:49:58.425Z,101971.78
2022-10-09T11:52:40.733Z,101957.84
2022-10-09T11:55:16.965Z,101955.47
2022-10-09T11:57:43.973Z,101950.19
2022-10-09T12:00:11.392Z,101938.84
2022-10-09T12:02:38.478Z,101946.44
2022-10-09T12:05:28.902Z,101921.41
2022-10-09T12:08:18.454Z,101918.22
2022-10-09T12:10:53.182Z,101924.81
2022-10-09T12:13:32.127Z,101927.31
2022-10-09T12:15:59.592Z,101904.34
2022-10-09T12:18:30.439Z,101905.41
2022-10-09T12:21:00.315Z,101898.53
2022-10-09T12:23:33.080Z,101895.25
2022-10-09T12:26:01.744Z,101894.91
2022-10-09T12:28:45.732Z,101882.56
2022-10-09T12:31:27.632Z,101870.16
2022-10-09T12:34:02.780Z,101874.47
2022-10-09T12:36:31.634Z,101867.16
2022-10-09T12:39:12.396Z,101869.59
2022-10-09T12:41:39.656Z,101858.81
2022-10-09T12:44:17.499Z,101849.06
2022-10-09T12:46:44.355Z,101850.09
2022-10-09T12:49:21.170Z,101841.38
2022-10-09T12:51:56.767Z,101830.56
2022-10-09T12:54:25.211Z,101824.28
2022-10-09T12:56:53.696Z,101824.50
2022-10-09T12:59:21.593Z,101824.31
2022-10-09T13:01:51.156Z,101807.22
2022-10-09T13:04:26.204Z,101812.09
2022-10-09T13:06:54.404Z,101809.66
2022-10-09T13:09:33.994Z,101798.09
2022-10-09T13:12:19.732Z,101803.38
2022-10-09T13:14:55.337Z,101809.50
2022-10-09T13:17:40.010Z,101801.16
2022-10-09T13:20:12.724Z,101793.81
2022-10-09T13:22:39.687Z,101777.97
2022-10-09T13:25:07.040Z,101778.78
2022-10-09T13:27:37.914Z,101769.84
2022-10-09T13:30:06.114Z,101769.84
2022-10-09T13:32:32.768Z,101767.00
2022-10-09T13:35:00.689Z,101762.13
2022-10-09T13:37:27.457Z,101764.97
2022-10-09T13:39:55.786Z,101754.22
2022-10-09T13:42:25.782Z,101762.94
2022-10-09T13:44:52.996Z,101746.88
2022-10-09T13:47:24.180Z,101747.28
2022-10-09T13:49:51.453Z,101727.78
2022-10-09T13:52:18.027Z,101727.75
2022-10-09T13:54:45.204Z,101729.22
2022-10-09T13:57:12.146Z,101727.97
2022-10-09T13:59:39.302Z,101719.22
2022-10-09T14:02:06.201Z,101721.25
2022-10-09T14:04:32.773Z,101714.94
2022-10-09T14:06:59.535Z,101707.22
2022-10-09T14:09:26.795Z,101706.41
2022-10-09T14:11:53.542Z,101717.59
2022-10-09T14:14:22.255Z,101708.06
2022-10-09T14:16:50.653Z,101701.94
2022-10-09T14:19:18.029Z,101701.94
2022-10-09T14:21:46.667Z,101692.59
2022-10-09T14:24:14.493Z,101686.50
2022-10-09T14:26:41.243Z,101688.13
2022-10-09T14:29:08.854Z,101678.19
2022-10-09T14:31:35.409Z,101682.03
2022-10-09T14:34:02.140Z,101668.00
2022-10-09T14:36:29.142Z,101665.19
2022-10-09T14:38:55.964Z,101664.75
2022-10-09T14:41:23.719Z,101655.84
2022-10-09T14:43:56.877Z,101653.41
2022-10-09T14:46:24.451Z,101649.31
2022-10-09T14:48:54.090Z,101657.47
2022-10-09T14:51:23.903Z,101652.81
2022-10-09T14:53:50.873Z,101644.88
2022-10-09T14:56:20.512Z,101630.47
2022-10-09T14:58:47.771Z,101647.53
2022-10-09T15:01:16.120Z,101632.09
2022-10-09T15:03:43.741Z,101628.41
2022-10-09T15:06:11.629Z,101622.53
2022-10-09T15:08:40.774Z,101615.22
2022-10-09T15:11:08.482Z,101609.72
2022-10-09T15:13:35.770Z,101617.25
2022-10-09T15:16:05.655Z,101615.19
2022-10-09T15:18:32.808Z,101590.63
2022-10-09T15:20:59.813Z,101601.59
2022-10-09T15:23:27.705Z,101598.13
2022-10-09T15:25:56.897Z,101590.63
2022-10-09T15:28:25.152Z,101591.84
2022-10-09T15:30:59.280Z,101585.94
2022-10-09T15:33:26.670Z,101591.22
2022-10-09T15:35:53.873Z,101590.63
2022-10-09T15:38:22.730Z,101580.88
2022-10-09T15:40:53.710Z,101583.53
2022-10-09T15:43:23.350Z,101581.09
2022-10-09T15:45:50.524Z,101569.91
2022-10-09T15:48:20.754Z,101555.72
2022-10-09T15:50:51.759Z,101564.84
2022-10-09T15:53:22.834Z,101560.19
2022-10-09T15:55:52.851Z,101550.00
2022-10-09T15:58:20.387Z,101550.81
2022-10-09T16:00:49.724Z,101552.22
2022-10-09T16:03:18.836Z,101548.97
2022-10-09T16:05:48.920Z,101537.38
2022-10-09T16:08:16.952Z,101540.22
2022-10-09T16:10:48.767Z,101539.78
2022-10-09T16:13:16.764Z,101538.53
2022-10-09T16:15:47.057Z,101540.81
2022-10-09T16:18:18.086Z,101539.34
2022-10-09T16:20:45.021Z,101535.66
2022-10-09T16:23:12.222Z,101529.91
2022-10-09T16:25:40.113Z,101522.19
2022-10-09T16:28:09.436Z,101530.06
2022-10-09T16:30:41.426Z,101529.63
2022-10-09T16:33:12.483Z,101525.28
2022-10-09T16:35:39.990Z,101527.94
2022-10-09T16:38:06.799Z,101522.03
2022-10-09T16:40:57.294Z,101515.84
2022-10-09T16:43:20.604Z,101508.06
2022-10-09T16:45:47.334Z,101506.56
2022-10-09T16:48:14.065Z,101521.66
2022-10-09T16:50:42.406Z,101509.59
2022-10-09T16:53:09.485Z,101506.25
2022-10-09T16:55:36.695Z,101506.22
2022-10-09T16:58:03.832Z,101502.63
2022-10-09T17:00:30.431Z,101517.28
2022-10-09T17:02:57.154Z,101521.28
2022-10-09T17:05:25.439Z,101519.38
2022-10-09T17:07:52.452Z,101511.44
2022-10-09T17:10:19.698Z,101517.44
2022-10-09T17:12:46.288Z,101504.78
2022-10-09T17:15:13.574Z,101523.06
2022-10-09T17:17:40.887Z,101512.09
2022-10-09T17:20:08.236Z,101516.09
2022-10-09T17:22:35.156Z,101521.53
2022-10-09T17:25:02.359Z,101517.03
2022-10-09T17:27:28.976Z,101525.63
2022-10-09T17:29:55.505Z,101513.03
2022-10-09T17:32:22.715Z,101515.47
2022-10-09T17:34:51.260Z,101508.25
2022-10-09T17:37:17.833Z,101504.41
2022-10-09T17:39:48.493Z,101509.84
2022-10-09T17:42:17.974Z,101507.88
2022-10-09T17:44:44.646Z,101498.97
2022-10-09T17:47:11.652Z,101504.88
2022-10-09T17:49:38.396Z,101485.94
2022-10-09T17:52:05.496Z,101496.81
2022-10-09T17:54:32.208Z,101495.44
2022-10-09T17:57:00.634Z,101479.31
2022-10-09T17:59:27.725Z,101487.53
2022-10-09T18:01:54.451Z,101485.56
2022-10-09T18:04:21.015Z,101481.28
2022-10-09T18:06:47.700Z,101476.69
2022-10-09T18:09:14.329Z,101478.78
2022-10-09T18:11:41.173Z,101483.22
2022-10-09T18:14:07.874Z,101481.97
2022-10-09T18:16:37.881Z,101470.16
2022-10-09T18:19:06.549Z,101472.66
2022-10-09T18:21:34.461Z,101471.69
2022-10-09T18:24:01.063Z,101473.06
2022-10-09T18:26:27.733Z,101457.81
2022-10-09T18:28:54.622Z,101464.50
2022-10-09T18:31:23.922Z,101467.06
2022-10-09T18:33:52.231Z,101461.00
2022-10-09T18:36:24.806Z,101458.63
2022-10-09T18:38:54.262Z,101450.97
2022-10-09T18:41:22.681Z,101468.63
2022-10-09T18:43:50.960Z,101463.03
2022-10-09T18:46:21.131Z,101464.38
2022-10-09T18:48:47.975Z,101456.75
2022-10-09T18:51:18.293Z,101459.25
2022-10-09T18:53:49.341Z,101442.16
2022-10-09T18:56:19.049Z,101463.78
2022-10-09T18:58:46.859Z,101454.31
2022-10-09T19:01:14.216Z,101449.75
2022-10-09T19:03:45.930Z,101445.94
2022-10-09T19:06:15.933Z,101451.03
2022-10-09T19:08:43.675Z,101447.97
2022-10-09T19:11:10.358Z,101445.03
2022-10-09T19:13:37.076Z,101427.78
2022-10-09T19:16:05.678Z,101431.69
2022-10-09T19:18:35.085Z,101433.91
2022-10-09T19:21:02.940Z,101426.31
2022-10-09T19:23:30.023Z,101418.31
2022-10-09T19:25:58.337Z,101424.84
2022-10-09T19:28:27.872Z,101406.22
2022-10-09T19:30:54.508Z,101424.53
2022-10-09T19:33:21.127Z,101431.53
2022-10-09T19:35:50.360Z,101435.81
2022-10-09T19:38:18.590Z,101426.84
2022-10-09T19:40:45.955Z,101436.66
2022-10-09T19:43:13.921Z,101433.91
2022-10-09T19:45:41.058Z,101429.66
2022-10-09T19:48:07.778Z,101421.50
2022-10-09T19:50:40.322Z,101429.16
2022-10-09T19:53:06.874Z,101426.25
2022-10-09T19:55:33.932Z,101418.59
2022-10-09T19:58:00.630Z,101416.47
2022-10-09T20:00:28.053Z,101423.47
2022-10-09T20:02:54.652Z,101414.69
2022-10-09T20:05:21.839Z,101401.75
2022-10-09T20:07:49.254Z,101418.72
2022-10-09T20:10:16.525Z,101411.41
2022-10-09T20:12:43.241Z,101411.56
2022-10-09T20:15:10.245Z,101390.81
2022-10-09T20:17:36.812Z,101398.19
2022-10-09T20:20:04.961Z,101403.53
2022-10-09T20:22:31.915Z,101398.47
2022-10-09T20:24:58.642Z,101401.44
2022-10-09T20:27:25.318Z,101404.03
2022-10-09T20:29:54.990Z,101401.59
2022-10-09T20:32:21.667Z,101398.66
2022-10-09T20:34:48.474Z,101388.03
2022-10-09T20:37:15.095Z,101393.75
2022-10-09T20:39:41.730Z,101391.16
2022-10-09T20:42:08.561Z,101382.19
2022-10-09T20:44:35.353Z,101396.53
2022-10-09T20:47:01.996Z,101394.72
2022-10-09T20:49:28.847Z,101384.13
2022-10-09T20:51:56.778Z,101396.19
2022-10-09T20:54:23.775Z,101383.78
2022-10-09T20:56:50.866Z,101380.03
2022-10-09T20:59:18.105Z,101374.00
2022-10-09T21:01:45.093Z,101381.34
2022-10-09T21:04:12.250Z,101352.97
2022-10-09T21:06:39.317Z,101372.69
2022-10-09T21:09:06.398Z,101375.94
2022-10-09T21:11:34.700Z,101360.97
2022-10-09T21:14:02.616Z,101371.69
2022-10-09T21:16:29.726Z,101372.53
2022-10-09T21:18:58.971Z,101379.69
2022-10-09T21:21:26.173Z,101372.66
2022-10-09T21:23:54.384Z,101369.25
2022-10-09T21:26:22.854Z,101361.06
2022-10-09T21:28:53.254Z,101356.81
2022-10-09T21:31:28.586Z,101364.16
2022-10-09T21:33:55.873Z,101377.06
2022-10-09T21:37:08.836Z,101369.06
2022-10-09T21:39:34.541Z,101367.09
2022-10-09T21:42:01.381Z,101363.13
2022-10-09T21:44:28.227Z,101366.75
2022-10-09T21:46:54.890Z,101350.41
2022-10-09T21:49:27.639Z,101367.88
2022-10-09T21:51:54.655Z,101345.50
2022-10-09T21:54:21.481Z,101348.75
2022-10-09T21:56:48.822Z,101358.53
2022-10-09T21:59:15.578Z,101342.38
2022-10-09T22:01:42.284Z,101349.72
2022-10-09T22:04:09.007Z,101343.03
2022-10-09T22:06:35.583Z,101343.38
2022-10-09T22:09:02.117Z,101330.16
2022-10-09T22:11:28.773Z,101325.75
2022-10-09T22:13:55.899Z,101330.78
2022-10-09T22:16:22.553Z,101321.31
2022-10-09T22:18:49.142Z,101327.50
2022-10-09T22:21:16.299Z,101331.91
2022-10-09T22:23:43.472Z,101316.59
2022-10-09T22:26:19.268Z,101323.94
2022-10-09T22:28:47.000Z,101301.25
2022-10-09T22:31:22.430Z,101307.94
2022-10-09T22:33:50.787Z,101309.41
2022-10-09T22:36:19.527Z,101304.34
2022-10-09T22:38:46.342Z,101314.63
2022-10-09T22:41:16.425Z,101312.00
2022-10-09T22:43:49.797Z,101320.19
2022-10-09T22:46:19.215Z,101311.03
2022-10-09T22:48:46.302Z,101319.03
2022-10-09T22:51:15.340Z,101315.13
2022-10-09T22:53:43.160Z,101313.47
2022-10-09T22:56:14.640Z,101303.78
2022-10-09T22:58:41.468Z,101309.16
2022-10-09T23:01:12.452Z,101309.09
2022-10-09T23:03:39.084Z,101311.78
2022-10-09T23:06:10.917Z,101302.84
2022-10-09T23:08:40.330Z,101312.50
2022-10-09T23:11:07.455Z,101305.94
2022-10-09T23:13:34.432Z,101318.78
2022-10-09T23:16:02.549Z,101316.16
2022-10-09T23:18:29.897Z,101305.22
2022-10-09T23:20:56.943Z,101310.22
2022-10-09T23:23:23.799Z,101307.78
2022-10-09T23:25:50.313Z,101291.81
2022-10-09T23:28:17.147Z,101301.88
2022-10-09T23:30:43.669Z,101295.53
2022-10-09T23:33:10.264Z,101287.44
2022-10-09T23:35:42.837Z,101279.63
2022-10-09T23:38:09.828Z,101284.97
2022-10-09T23:40:36.388Z,101287.69
2022-10-09T23:43:03.028Z,101279.72
2022-10-09T23:45:29.699Z,101285.28
2022-10-09T23:47:56.297Z,101291.78
2022-10-09T23:50:22.827Z,101280.00
2022-10-09T23:52:49.720Z,101275.63
2022-10-09T23:55:16.533Z,101272.56
2022-10-09T23:57:43.130Z,101273.75
